Terminal Aerodrome Forecast
Issued by NWS Nashville, TN

Home | Current Version | Previous Version | Text Only | Print | Product List | Glossary On
Versions: 1 2 3 4 5 6 7 8 9 10 11 12 13 14 15 16 17 18 19 20 21 22 23 24 25 26 27 28 29 30 31 32
000
FTUS44 KOHX 291100
TAFCSV
TAF
KCSV 291121Z 2912/3012 17004KT 6SM BR SCT005 BKN080
      TEMPO 2912/2914 4SM BR BKN005
     FM291400 17007KT P6SM VCSH BKN025 BKN040
     FM291800 18011KT P6SM VCTS BKN035CB BKN100
     FM300200 16004KT 4SM BR BKN100 BKN250
     FM300600 16004KT 6SM BR BKN035 BKN050=

USA.gov is the U.S. government's official web portal to all federal, state and local government web resources and services.